createdAt,value
2023-02-06T00:01:50.461Z,3.12
2023-02-06T00:04:18.564Z,3.10
2023-02-06T00:06:46.619Z,3.11
2023-02-06T00:09:14.319Z,3.13
2023-02-06T00:11:42.052Z,3.11
2023-02-06T00:14:09.944Z,3.07
2023-02-06T00:16:38.067Z,3.07
2023-02-06T00:19:06.098Z,3.07
2023-02-06T00:21:34.102Z,3.04
2023-02-06T00:24:02.934Z,3.01
2023-02-06T00:26:32.486Z,2.96
2023-02-06T00:29:00.227Z,2.98
2023-02-06T00:31:28.101Z,2.95
2023-02-06T00:33:55.955Z,2.93
2023-02-06T00:36:23.722Z,2.87
2023-02-06T00:38:51.397Z,2.84
2023-02-06T00:41:19.160Z,2.82
2023-02-06T00:43:47.002Z,2.84
2023-02-06T00:46:14.845Z,2.88
2023-02-06T00:48:43.347Z,2.88
2023-02-06T00:51:11.280Z,2.84
2023-02-06T00:53:40.221Z,2.85
2023-02-06T00:56:08.439Z,2.86
2023-02-06T00:58:36.178Z,2.89
2023-02-06T01:01:04.247Z,2.92
2023-02-06T01:03:31.916Z,2.96
2023-02-06T01:05:59.650Z,2.98
2023-02-06T01:08:27.370Z,3.05
2023-02-06T01:10:55.383Z,3.07
2023-02-06T01:13:23.126Z,3.09
2023-02-06T01:15:51.263Z,3.07
2023-02-06T01:18:19.391Z,3.08
2023-02-06T01:20:47.147Z,3.09
2023-02-06T01:23:14.966Z,3.09
2023-02-06T01:25:42.746Z,3.10
2023-02-06T01:28:10.430Z,3.07
2023-02-06T01:30:38.145Z,3.08
2023-02-06T01:33:05.908Z,3.04
2023-02-06T01:35:34.019Z,3.03
2023-02-06T01:38:01.969Z,2.99
2023-02-06T01:40:29.715Z,3.00
2023-02-06T01:42:57.442Z,2.97
2023-02-06T01:45:28.106Z,2.97
2023-02-06T01:48:01.162Z,2.97
2023-02-06T01:50:30.572Z,2.92
2023-02-06T01:52:58.336Z,2.90
2023-02-06T01:55:26.085Z,2.91
2023-02-06T01:57:53.961Z,2.91
2023-02-06T02:00:22.099Z,2.88
2023-02-06T02:02:50.412Z,2.90
2023-02-06T02:05:20.535Z,2.88
2023-02-06T02:07:53.961Z,2.88
2023-02-06T02:10:21.804Z,2.85
2023-02-06T02:12:49.517Z,2.81
2023-02-06T02:15:17.378Z,2.78
2023-02-06T02:17:51.083Z,2.76
2023-02-06T02:20:39.921Z,2.68
2023-02-06T02:23:19.646Z,2.67
2023-02-06T02:26:06.453Z,2.63
2023-02-06T02:28:43.141Z,2.66
2023-02-06T02:31:10.822Z,2.63
2023-02-06T02:34:02.418Z,2.60
2023-02-06T02:36:40.894Z,2.57
2023-02-06T02:39:29.621Z,2.52
2023-02-06T02:42:24.196Z,2.51
2023-02-06T02:45:02.923Z,2.52
2023-02-06T02:47:36.373Z,2.57
2023-02-06T02:50:04.603Z,2.60
2023-02-06T02:52:32.269Z,2.58
2023-02-06T02:55:00.032Z,2.59
2023-02-06T02:57:31.703Z,2.61
2023-02-06T03:00:01.477Z,2.58
2023-02-06T03:02:35.708Z,2.64
2023-02-06T03:05:08.372Z,2.66
2023-02-06T03:07:54.823Z,2.65
2023-02-06T03:10:59.064Z,2.62
2023-02-06T03:13:29.439Z,2.67
2023-02-06T03:16:17.895Z,2.68
2023-02-06T03:18:49.460Z,2.68
2023-02-06T03:21:20.998Z,2.67
2023-02-06T03:23:53.688Z,2.65
2023-02-06T03:26:24.781Z,2.61
2023-02-06T03:28:55.460Z,2.56
2023-02-06T03:31:34.367Z,2.59
2023-02-06T03:34:16.126Z,2.55
2023-02-06T03:36:44.110Z,2.53
2023-02-06T03:39:12.415Z,2.50
2023-02-06T03:41:41.125Z,2.47
2023-02-06T03:44:14.987Z,2.49
2023-02-06T03:46:44.950Z,2.46
2023-02-06T03:49:16.968Z,2.48
2023-02-06T03:51:57.721Z,2.47
2023-02-06T03:54:27.612Z,2.47
2023-02-06T03:57:02.088Z,2.51
2023-02-06T03:59:30.846Z,2.47
2023-02-06T04:02:01.768Z,2.45
2023-02-06T04:04:38.890Z,2.47
2023-02-06T04:07:28.138Z,2.49
2023-02-06T04:09:55.941Z,2.47
2023-02-06T04:12:24.711Z,2.46
2023-02-06T04:14:53.148Z,2.45
2023-02-06T04:17:38.748Z,2.46
2023-02-06T04:20:10.202Z,2.48
2023-02-06T04:22:37.999Z,2.50
2023-02-06T04:25:05.923Z,2.52
2023-02-06T04:27:33.679Z,2.47
2023-02-06T04:30:02.512Z,2.48
2023-02-06T04:32:30.289Z,2.46
2023-02-06T04:34:58.031Z,2.45
2023-02-06T04:37:25.849Z,2.46
2023-02-06T04:39:53.534Z,2.49
2023-02-06T04:42:21.237Z,2.51
2023-02-06T04:44:48.912Z,2.51
2023-02-06T04:47:16.659Z,2.49
2023-02-06T04:49:44.420Z,2.49
2023-02-06T04:52:12.064Z,2.51
2023-02-06T04:54:39.737Z,2.54
2023-02-06T04:57:07.515Z,2.54
2023-02-06T04:59:35.330Z,2.57
2023-02-06T05:02:03.117Z,2.56
2023-02-06T05:04:30.833Z,2.56
2023-02-06T05:06:58.682Z,2.58
2023-02-06T05:09:26.518Z,2.58
2023-02-06T05:11:54.192Z,2.60
2023-02-06T05:14:21.962Z,2.59
2023-02-06T05:16:49.625Z,2.60
2023-02-06T05:19:17.267Z,2.62
2023-02-06T05:21:44.930Z,2.59
2023-02-06T05:24:12.643Z,2.60
2023-02-06T05:26:40.470Z,2.60
2023-02-06T05:29:08.690Z,2.59
2023-02-06T05:31:36.683Z,2.56
2023-02-06T05:34:04.545Z,2.55
2023-02-06T05:36:32.383Z,2.53
2023-02-06T05:39:00.269Z,2.49
2023-02-06T05:41:27.971Z,2.46
2023-02-06T05:43:55.596Z,2.47
2023-02-06T05:46:23.337Z,2.44
2023-02-06T05:48:51.008Z,2.41
2023-02-06T05:51:18.794Z,2.39
2023-02-06T05:53:46.538Z,2.36
2023-02-06T05:56:14.249Z,2.35
2023-02-06T05:58:42.071Z,2.31
2023-02-06T06:01:11.934Z,2.29
2023-02-06T06:03:39.717Z,2.27
2023-02-06T06:06:08.038Z,2.28
2023-02-06T06:08:35.814Z,2.27
2023-02-06T06:11:03.915Z,2.25
2023-02-06T06:13:31.907Z,2.26
2023-02-06T06:15:59.702Z,2.26
2023-02-06T06:18:28.030Z,2.26
2023-02-06T06:20:55.805Z,2.27
2023-02-06T06:23:23.500Z,2.28
2023-02-06T06:25:51.623Z,2.26
2023-02-06T06:28:19.318Z,2.29
2023-02-06T06:30:47.287Z,2.32
2023-02-06T06:33:17.542Z,2.32
2023-02-06T06:35:45.641Z,2.33
2023-02-06T06:38:13.400Z,2.31
2023-02-06T06:40:42.303Z,2.32
2023-02-06T06:43:09.988Z,2.30
2023-02-06T06:45:38.073Z,2.31
2023-02-06T06:48:06.141Z,2.29
2023-02-06T06:50:33.820Z,2.29
2023-02-06T06:53:01.521Z,2.29
2023-02-06T06:55:29.230Z,2.29
2023-02-06T06:57:57.163Z,2.31
2023-02-06T07:00:24.964Z,2.35
2023-02-06T07:02:53.181Z,2.37
2023-02-06T07:05:21.393Z,2.43
2023-02-06T07:07:49.088Z,2.53
2023-02-06T07:10:17.117Z,2.56
2023-02-06T07:12:44.860Z,2.63
2023-02-06T07:15:12.814Z,2.70
2023-02-06T07:17:40.958Z,2.73
2023-02-06T07:20:09.101Z,2.77
2023-02-06T07:22:36.754Z,2.77
2023-02-06T07:25:05.040Z,2.76
2023-02-06T07:27:32.799Z,2.76
2023-02-06T07:30:00.927Z,2.84
2023-02-06T07:32:28.558Z,2.91
2023-02-06T07:34:56.197Z,3.04
2023-02-06T07:37:23.911Z,2.90
2023-02-06T07:39:51.558Z,3.02
2023-02-06T07:42:20.005Z,3.05
2023-02-06T07:44:47.731Z,3.22
2023-02-06T07:47:15.491Z,3.23
2023-02-06T07:49:43.314Z,3.24
2023-02-06T07:52:11.165Z,3.18
2023-02-06T07:54:38.883Z,3.20
2023-02-06T07:57:06.581Z,3.21
2023-02-06T07:59:34.500Z,3.14
2023-02-06T08:02:02.221Z,3.12
2023-02-06T08:04:36.144Z,3.13
2023-02-06T08:07:05.801Z,3.12
2023-02-06T08:09:34.408Z,3.09
2023-02-06T08:12:02.392Z,3.15
2023-02-06T08:14:30.270Z,3.13
2023-02-06T08:16:58.043Z,3.12
2023-02-06T08:19:26.065Z,3.09
2023-02-06T08:21:53.703Z,3.12
2023-02-06T08:24:21.348Z,3.12
2023-02-06T08:26:49.045Z,3.18
2023-02-06T08:29:16.748Z,3.18
2023-02-06T08:31:45.077Z,3.13
2023-02-06T08:34:16.152Z,3.14
2023-02-06T08:36:44.527Z,3.14
2023-02-06T08:39:14.752Z,3.12
2023-02-06T08:41:44.463Z,3.18
2023-02-06T08:44:15.473Z,3.24
2023-02-06T08:46:44.560Z,3.29
2023-02-06T08:49:17.982Z,3.34
2023-02-06T08:51:46.531Z,3.31
2023-02-06T08:54:17.857Z,3.39
2023-02-06T08:56:45.718Z,3.40
2023-02-06T08:59:15.220Z,3.38
2023-02-06T09:01:43.850Z,3.39
2023-02-06T09:04:13.100Z,3.35
2023-02-06T09:06:44.106Z,3.41
2023-02-06T09:09:13.149Z,3.43
2023-02-06T09:11:41.555Z,3.46
2023-02-06T09:14:12.186Z,3.46
2023-02-06T09:16:39.945Z,3.42
2023-02-06T09:19:08.176Z,3.38
2023-02-06T09:21:37.188Z,3.33
2023-02-06T09:24:08.098Z,3.25
2023-02-06T09:26:57.076Z,3.15
2023-02-06T09:29:27.561Z,3.10
2023-02-06T09:31:55.649Z,2.98
2023-02-06T09:34:23.523Z,2.81
2023-02-06T09:36:51.363Z,2.80
2023-02-06T09:39:19.053Z,2.79
2023-02-06T09:41:52.137Z,2.78
2023-02-06T09:44:29.696Z,2.77
2023-02-06T09:47:12.302Z,2.77
2023-02-06T09:50:09.088Z,2.79
2023-02-06T09:53:00.123Z,2.85
2023-02-06T09:55:49.530Z,2.91
2023-02-06T09:58:20.393Z,2.92
2023-02-06T10:01:06.992Z,2.93
2023-02-06T10:03:43.931Z,2.89
2023-02-06T10:06:28.257Z,2.88
2023-02-06T10:09:12.435Z,2.92
2023-02-06T10:11:53.063Z,2.97
2023-02-06T10:14:28.473Z,3.03
2023-02-06T10:17:04.061Z,3.07
2023-02-06T10:19:47.856Z,3.20
2023-02-06T10:22:22.174Z,3.33
2023-02-06T10:25:25.135Z,3.54
2023-02-06T10:27:58.908Z,3.72
2023-02-06T10:30:35.088Z,3.95
2023-02-06T10:33:26.059Z,4.12
2023-02-06T10:36:00.485Z,4.22
2023-02-06T10:38:51.757Z,4.33
2023-02-06T10:41:22.455Z,4.38
2023-02-06T10:43:57.062Z,4.41
2023-02-06T10:46:24.676Z,4.38
2023-02-06T10:49:03.812Z,4.40
2023-02-06T10:51:34.831Z,4.42
2023-02-06T10:54:17.149Z,4.49
2023-02-06T10:56:47.713Z,4.53
2023-02-06T10:59:21.460Z,4.50
2023-02-06T11:01:53.282Z,4.45
2023-02-06T11:04:20.858Z,4.46
2023-02-06T11:06:49.068Z,4.33
2023-02-06T11:09:17.088Z,4.24
2023-02-06T11:11:49.046Z,4.18
2023-02-06T11:14:43.276Z,4.03
2023-02-06T11:17:16.494Z,4.02
2023-02-06T11:19:47.545Z,3.96
2023-02-06T11:22:17.879Z,3.87
2023-02-06T11:25:07.102Z,3.90
2023-02-06T11:27:37.274Z,4.00
2023-02-06T11:30:10.365Z,4.15
2023-02-06T11:32:55.793Z,4.30
2023-02-06T11:35:41.227Z,4.38
2023-02-06T11:38:15.250Z,4.49
2023-02-06T11:40:43.568Z,4.57
2023-02-06T11:43:16.572Z,4.62
2023-02-06T11:45:44.981Z,4.66
2023-02-06T11:48:32.637Z,4.77
2023-02-06T11:51:00.593Z,4.80
2023-02-06T11:53:28.512Z,4.81
2023-02-06T11:56:23.429Z,4.84
2023-02-06T11:59:22.556Z,4.87
2023-02-06T12:01:51.017Z,4.92
2023-02-06T12:04:27.077Z,4.87
2023-02-06T12:07:06.597Z,4.85
2023-02-06T12:09:34.637Z,4.78
2023-02-06T12:12:43.310Z,4.81
2023-02-06T12:15:43.540Z,4.90
2023-02-06T12:18:19.992Z,4.86
2023-02-06T12:20:55.682Z,4.85
2023-02-06T12:23:32.618Z,4.73
2023-02-06T12:26:04.934Z,4.59
2023-02-06T12:28:40.416Z,4.52
2023-02-06T12:31:20.381Z,4.43
2023-02-06T12:33:55.046Z,4.49
2023-02-06T12:36:36.512Z,4.46
2023-02-06T12:39:32.983Z,4.39
2023-02-06T12:42:13.934Z,4.34
2023-02-06T12:44:47.952Z,4.23
2023-02-06T12:47:24.247Z,4.26
2023-02-06T12:50:01.635Z,4.21
2023-02-06T12:52:35.423Z,4.19
2023-02-06T12:55:17.112Z,4.13
2023-02-06T12:57:45.453Z,4.13
2023-02-06T13:00:41.480Z,4.03
2023-02-06T13:03:33.987Z,4.00
2023-02-06T13:06:04.208Z,3.96
2023-02-06T13:08:49.726Z,3.94
2023-02-06T13:11:37.171Z,3.93
2023-02-06T13:14:25.283Z,3.76
2023-02-06T13:16:52.965Z,3.62
2023-02-06T13:19:40.440Z,3.66
2023-02-06T13:22:11.431Z,3.67
2023-02-06T13:24:41.343Z,3.61
2023-02-06T13:27:09.047Z,3.58
2023-02-06T13:29:42.609Z,3.48
2023-02-06T13:32:13.491Z,3.47
2023-02-06T13:34:47.894Z,3.42
2023-02-06T13:37:47.282Z,3.35
2023-02-06T13:40:24.570Z,3.28
2023-02-06T13:43:04.700Z,3.29
2023-02-06T13:45:37.745Z,3.33
2023-02-06T13:48:11.439Z,3.27
2023-02-06T13:50:57.640Z,3.21
2023-02-06T13:53:50.374Z,3.10
2023-02-06T13:56:33.071Z,3.10
2023-02-06T13:59:07.523Z,3.07
2023-02-06T14:01:35.322Z,3.05
2023-02-06T14:04:07.639Z,3.04
2023-02-06T14:06:57.751Z,3.01
2023-02-06T14:09:31.527Z,3.01
2023-02-06T14:12:35.225Z,3.05
2023-02-06T14:15:02.861Z,3.04
2023-02-06T14:17:57.247Z,3.07
2023-02-06T14:20:35.699Z,3.01
2023-02-06T14:23:17.362Z,3.06
2023-02-06T14:25:50.381Z,3.09
2023-02-06T14:28:33.978Z,3.07
2023-02-06T14:31:37.210Z,3.06
2023-02-06T14:34:35.509Z,3.04
2023-02-06T14:37:09.016Z,3.01
2023-02-06T14:39:57.752Z,2.99
2023-02-06T14:42:34.106Z,2.97
2023-02-06T14:45:07.856Z,2.91
2023-02-06T14:47:43.449Z,2.91
2023-02-06T14:50:22.182Z,2.89
2023-02-06T14:52:54.215Z,2.82
2023-02-06T14:55:35.396Z,2.80
2023-02-06T14:58:05.293Z,2.79
2023-02-06T15:00:33.960Z,2.77
2023-02-06T15:03:19.640Z,2.82
2023-02-06T15:05:48.623Z,2.81
2023-02-06T15:08:20.153Z,2.81
2023-02-06T15:10:48.530Z,2.79
2023-02-06T15:13:25.308Z,2.76
2023-02-06T15:15:58.025Z,2.78
2023-02-06T15:18:25.752Z,2.73
2023-02-06T15:21:01.034Z,2.75
2023-02-06T15:23:37.671Z,2.73
2023-02-06T15:26:23.570Z,2.69
2023-02-06T15:29:01.314Z,2.63
2023-02-06T15:31:30.356Z,2.57
2023-02-06T15:34:00.940Z,2.52
2023-02-06T15:36:35.954Z,2.48
2023-02-06T15:39:06.376Z,2.36
2023-02-06T15:41:35.487Z,2.28
2023-02-06T15:44:08.175Z,2.23
2023-02-06T15:46:39.016Z,2.20
2023-02-06T15:49:08.044Z,2.15
2023-02-06T15:51:53.177Z,2.13
2023-02-06T15:54:24.006Z,2.08
2023-02-06T15:56:57.669Z,2.03
2023-02-06T15:59:27.758Z,2.00
2023-02-06T16:01:59.150Z,1.98
2023-02-06T16:04:30.319Z,1.96
2023-02-06T16:07:14.675Z,1.92
2023-02-06T16:09:51.083Z,1.86
2023-02-06T16:12:19.220Z,1.88
2023-02-06T16:14:57.220Z,1.82
2023-02-06T16:17:32.030Z,1.79
2023-02-06T16:20:03.711Z,1.78
2023-02-06T16:22:38.865Z,1.72
2023-02-06T16:25:22.007Z,1.71
2023-02-06T16:27:52.309Z,1.68
2023-02-06T16:30:24.937Z,1.68
2023-02-06T16:32:55.379Z,1.63
2023-02-06T16:35:24.283Z,1.64
2023-02-06T16:37:54.228Z,1.61
2023-02-06T16:40:22.095Z,1.57
2023-02-06T16:42:51.339Z,1.52
2023-02-06T16:45:27.920Z,1.52
2023-02-06T16:47:56.322Z,1.47
2023-02-06T16:50:23.968Z,1.42
2023-02-06T16:52:57.102Z,1.39
2023-02-06T16:55:27.040Z,1.32
2023-02-06T16:58:02.537Z,1.30
2023-02-06T17:00:32.516Z,1.25
2023-02-06T17:03:00.682Z,1.21
2023-02-06T17:05:29.569Z,1.21
2023-02-06T17:07:57.418Z,1.19
2023-02-06T17:10:27.436Z,1.18
2023-02-06T17:12:55.337Z,1.20
2023-02-06T17:15:22.984Z,1.20
2023-02-06T17:17:51.372Z,1.21
2023-02-06T17:20:35.760Z,1.19
2023-02-06T17:23:03.953Z,1.18
2023-02-06T17:25:32.186Z,1.19
2023-02-06T17:28:00.140Z,1.16
2023-02-06T17:30:28.374Z,1.15
2023-02-06T17:32:56.495Z,1.12
2023-02-06T17:35:25.092Z,1.13
2023-02-06T17:37:53.579Z,1.15
2023-02-06T17:40:29.348Z,1.16
2023-02-06T17:42:58.440Z,1.17
2023-02-06T17:45:26.445Z,1.16
2023-02-06T17:47:55.136Z,1.19
2023-02-06T17:50:24.834Z,1.24
2023-02-06T17:52:56.908Z,1.33
2023-02-06T17:55:25.351Z,1.34
2023-02-06T17:57:54.171Z,1.36
2023-02-06T18:00:26.889Z,1.32
2023-02-06T18:02:56.312Z,1.31
2023-02-06T18:05:24.436Z,1.27
2023-02-06T18:07:52.970Z,1.24
2023-02-06T18:10:23.138Z,1.20
2023-02-06T18:12:51.686Z,1.17
2023-02-06T18:15:19.493Z,1.13
2023-02-06T18:17:47.306Z,1.09
2023-02-06T18:20:15.572Z,1.10
2023-02-06T18:22:43.299Z,1.10
2023-02-06T18:25:13.191Z,1.09
2023-02-06T18:27:42.363Z,1.08
2023-02-06T18:30:11.131Z,1.15
2023-02-06T18:32:39.676Z,1.16
2023-02-06T18:35:08.863Z,1.14
2023-02-06T18:37:36.853Z,1.14
2023-02-06T18:40:05.352Z,1.14
2023-02-06T18:42:52.062Z,1.13
2023-02-06T18:45:22.641Z,1.14
2023-02-06T18:47:52.639Z,1.11
2023-02-06T18:50:22.918Z,1.13
2023-02-06T18:52:51.539Z,1.13
2023-02-06T18:55:19.798Z,1.14
2023-02-06T18:57:47.707Z,1.14
2023-02-06T19:00:16.925Z,1.13
2023-02-06T19:02:44.766Z,1.13
2023-02-06T19:05:12.584Z,1.15
2023-02-06T19:07:40.313Z,1.15
2023-02-06T19:10:11.552Z,1.11
2023-02-06T19:12:40.268Z,1.13
2023-02-06T19:15:08.736Z,1.13
2023-02-06T19:17:36.681Z,1.12
2023-02-06T19:20:04.915Z,1.10
2023-02-06T19:22:35.937Z,1.07
2023-02-06T19:25:05.202Z,1.00
2023-02-06T19:27:32.908Z,0.90
2023-02-06T19:30:00.602Z,0.83
2023-02-06T19:32:30.166Z,0.75
2023-02-06T19:34:58.942Z,0.64
2023-02-06T19:37:26.666Z,0.59
2023-02-06T19:39:54.388Z,0.54
2023-02-06T19:42:22.095Z,0.48
2023-02-06T19:44:54.271Z,0.43
2023-02-06T19:47:22.412Z,0.34
2023-02-06T19:49:52.706Z,0.31
2023-02-06T19:52:21.290Z,0.23
2023-02-06T19:54:49.054Z,0.22
2023-02-06T19:57:17.134Z,0.20
2023-02-06T19:59:44.878Z,0.18
2023-02-06T20:02:16.768Z,0.20
2023-02-06T20:04:46.350Z,0.18
2023-02-06T20:07:14.127Z,0.18
2023-02-06T20:09:43.020Z,0.20
2023-02-06T20:12:13.519Z,0.19
2023-02-06T20:14:41.353Z,0.16
2023-02-06T20:17:09.413Z,0.15
2023-02-06T20:19:37.154Z,0.13
2023-02-06T20:22:05.917Z,0.12
2023-02-06T20:24:33.971Z,0.08
2023-02-06T20:27:06.876Z,0.06
2023-02-06T20:29:38.335Z,0.11
2023-02-06T20:32:07.485Z,0.18
2023-02-06T20:34:36.369Z,0.17
2023-02-06T20:37:05.214Z,0.15
2023-02-06T20:39:33.230Z,0.12
2023-02-06T20:42:01.277Z,0.09
2023-02-06T20:44:29.733Z,0.08
2023-02-06T20:46:57.511Z,0.10
2023-02-06T20:49:27.678Z,0.09
2023-02-06T20:51:55.668Z,0.04
2023-02-06T20:54:24.402Z,0.06
2023-02-06T20:56:52.351Z,0.02
2023-02-06T20:59:21.339Z,-0.07
2023-02-06T21:01:49.320Z,-0.13
2023-02-06T21:04:18.007Z,-0.14
2023-02-06T21:06:47.670Z,-0.16
2023-02-06T21:09:16.261Z,-0.16
2023-02-06T21:11:46.695Z,-0.16
2023-02-06T21:14:16.061Z,-0.16
2023-02-06T21:16:45.077Z,-0.17
2023-02-06T21:19:15.311Z,-0.14
2023-02-06T21:21:45.979Z,-0.16
2023-02-06T21:24:15.356Z,-0.12
2023-02-06T21:26:43.679Z,-0.13
2023-02-06T21:29:13.327Z,-0.14
2023-02-06T21:31:41.576Z,-0.12
2023-02-06T21:34:20.064Z,-0.13
2023-02-06T21:36:49.197Z,-0.16
2023-02-06T21:39:20.448Z,-0.17
2023-02-06T21:41:52.655Z,-0.19
2023-02-06T21:44:30.008Z,-0.17
2023-02-06T21:46:57.750Z,-0.18
2023-02-06T21:49:26.177Z,-0.17
2023-02-06T21:51:54.348Z,-0.18
2023-02-06T21:54:23.221Z,-0.17
2023-02-06T21:56:51.206Z,-0.15
2023-02-06T21:59:19.136Z,-0.17
2023-02-06T22:01:46.953Z,-0.20
2023-02-06T22:04:15.128Z,-0.22
2023-02-06T22:06:43.407Z,-0.27
2023-02-06T22:09:16.787Z,-0.30
2023-02-06T22:11:45.788Z,-0.32
2023-02-06T22:14:19.014Z,-0.35
2023-02-06T22:16:50.153Z,-0.37
2023-02-06T22:19:19.230Z,-0.44
2023-02-06T22:21:47.009Z,-0.48
2023-02-06T22:24:15.207Z,-0.51
2023-02-06T22:26:44.223Z,-0.56
2023-02-06T22:29:14.958Z,-0.58
2023-02-06T22:31:48.264Z,-0.59
2023-02-06T22:34:20.600Z,-0.63
2023-02-06T22:36:50.146Z,-0.67
2023-02-06T22:39:18.355Z,-0.73
2023-02-06T22:41:47.544Z,-0.77
2023-02-06T22:44:17.530Z,-0.79
2023-02-06T22:46:48.283Z,-0.80
2023-02-06T22:49:16.428Z,-0.85
2023-02-06T22:51:44.102Z,-0.87
2023-02-06T22:54:12.185Z,-0.91
2023-02-06T22:56:42.247Z,-0.92
2023-02-06T22:59:14.975Z,-0.95
2023-02-06T23:01:48.447Z,-1.00
2023-02-06T23:04:22.075Z,-1.03
2023-02-06T23:06:50.830Z,-1.07
2023-02-06T23:09:23.082Z,-1.10
2023-02-06T23:11:51.881Z,-1.13
2023-02-06T23:14:20.414Z,-1.13
2023-02-06T23:16:48.508Z,-1.16
2023-02-06T23:19:18.139Z,-1.19
2023-02-06T23:21:48.939Z,-1.26
2023-02-06T23:24:17.138Z,-1.25
2023-02-06T23:26:49.674Z,-1.25
2023-02-06T23:29:19.113Z,-1.28
2023-02-06T23:31:48.229Z,-1.29
2023-02-06T23:34:17.651Z,-1.33
2023-02-06T23:36:45.695Z,-1.32
2023-02-06T23:39:13.624Z,-1.33
2023-02-06T23:41:41.711Z,-1.35
2023-02-06T23:44:10.175Z,-1.34
2023-02-06T23:46:40.276Z,-1.34
2023-02-06T23:49:08.632Z,-1.36
2023-02-06T23:51:38.918Z,-1.38
2023-02-06T23:54:08.667Z,-1.38
2023-02-06T23:56:36.881Z,-1.42
2023-02-06T23:59:05.807Z,-1.41
